sensor_id;sensor_type;location;lat;lon;timestamp;temperature;humidity
67165;SHT31;54093;50.014;19.984;2023-03-17T00:09:11;-0.19;71.57
67165;SHT31;54093;50.014;19.984;2023-03-17T00:18:34;-0.05;71.62
67165;SHT31;54093;50.014;19.984;2023-03-17T00:27:56;-0.28;71.54
67165;SHT31;54093;50.014;19.984;2023-03-17T00:37:20;-0.38;71.37
67165;SHT31;54093;50.014;19.984;2023-03-17T00:46:41;-0.35;71.57
67165;SHT31;54093;50.014;19.984;2023-03-17T00:56:02;-0.33;71.12
67165;SHT31;54093;50.014;19.984;2023-03-17T01:05:24;-0.35;71.04
67165;SHT31;54093;50.014;19.984;2023-03-17T01:14:45;-0.55;71.13
67165;SHT31;54093;50.014;19.984;2023-03-17T01:24:08;-0.49;71.33
67165;SHT31;54093;50.014;19.984;2023-03-17T01:33:29;-0.67;72.57
67165;SHT31;54093;50.014;19.984;2023-03-17T01:52:37;-0.93;72.75
67165;SHT31;54093;50.014;19.984;2023-03-17T02:02:04;-1.14;71.94
67165;SHT31;54093;50.014;19.984;2023-03-17T02:11:26;-0.97;71.54
67165;SHT31;54093;50.014;19.984;2023-03-17T02:30:12;-1.18;72.49
67165;SHT31;54093;50.014;19.984;2023-03-17T02:39:34;-1.27;72.58
67165;SHT31;54093;50.014;19.984;2023-03-17T02:48:55;-1.27;72.23
67165;SHT31;54093;50.014;19.984;2023-03-17T02:58:16;-1.35;73.07
67165;SHT31;54093;50.014;19.984;2023-03-17T03:07:37;-1.46;72.84
67165;SHT31;54093;50.014;19.984;2023-03-17T03:16:58;-1.35;73.28
67165;SHT31;54093;50.014;19.984;2023-03-17T03:26:19;-1.73;73.68
67165;SHT31;54093;50.014;19.984;2023-03-17T03:35:40;-1.45;73.90
67165;SHT31;54093;50.014;19.984;2023-03-17T03:45:01;-1.45;73.49
67165;SHT31;54093;50.014;19.984;2023-03-17T03:54:22;-1.59;72.15
67165;SHT31;54093;50.014;19.984;2023-03-17T04:03:43;-1.93;74.18
67165;SHT31;54093;50.014;19.984;2023-03-17T04:13:07;-1.73;74.03
67165;SHT31;54093;50.014;19.984;2023-03-17T04:22:28;-1.59;73.14
67165;SHT31;54093;50.014;19.984;2023-03-17T04:31:49;-1.85;73.29
67165;SHT31;54093;50.014;19.984;2023-03-17T04:41:10;-1.94;73.76
67165;SHT31;54093;50.014;19.984;2023-03-17T04:50:31;-1.98;73.03
67165;SHT31;54093;50.014;19.984;2023-03-17T04:59:52;-1.94;73.48
67165;SHT31;54093;50.014;19.984;2023-03-17T05:09:13;-2.10;73.82
67165;SHT31;54093;50.014;19.984;2023-03-17T05:18:34;-1.98;72.98
67165;SHT31;54093;50.014;19.984;2023-03-17T05:27:56;-2.04;73.71
67165;SHT31;54093;50.014;19.984;2023-03-17T05:37:18;-1.94;74.38
67165;SHT31;54093;50.014;19.984;2023-03-17T05:46:39;-1.79;74.74
67165;SHT31;54093;50.014;19.984;2023-03-17T05:56:00;-1.24;72.86
67165;SHT31;54093;50.014;19.984;2023-03-17T06:05:21;-0.73;73.19
67165;SHT31;54093;50.014;19.984;2023-03-17T06:14:42;-0.32;73.57
67165;SHT31;54093;50.014;19.984;2023-03-17T06:24:03;0.05;73.51
67165;SHT31;54093;50.014;19.984;2023-03-17T06:33:24;1.15;73.44
67165;SHT31;54093;50.014;19.984;2023-03-17T06:42:46;2.54;69.17
67165;SHT31;54093;50.014;19.984;2023-03-17T06:52:08;3.55;67.38
67165;SHT31;54093;50.014;19.984;2023-03-17T07:01:29;3.80;67.87
67165;SHT31;54093;50.014;19.984;2023-03-17T07:10:57;5.23;62.16
67165;SHT31;54093;50.014;19.984;2023-03-17T07:20:21;5.93;61.38
67165;SHT31;54093;50.014;19.984;2023-03-17T07:29:42;6.03;60.81
67165;SHT31;54093;50.014;19.984;2023-03-17T07:39:03;7.38;56.46
67165;SHT31;54093;50.014;19.984;2023-03-17T07:48:25;8.25;58.65
67165;SHT31;54093;50.014;19.984;2023-03-17T07:57:47;8.51;58.15
67165;SHT31;54093;50.014;19.984;2023-03-17T08:07:08;10.25;53.42
67165;SHT31;54093;50.014;19.984;2023-03-17T08:16:30;10.70;48.74
67165;SHT31;54093;50.014;19.984;2023-03-17T08:25:59;10.25;42.53
67165;SHT31;54093;50.014;19.984;2023-03-17T08:35:21;11.58;38.42
67165;SHT31;54093;50.014;19.984;2023-03-17T08:44:43;12.57;34.97
67165;SHT31;54093;50.014;19.984;2023-03-17T08:54:04;11.99;36.14
67165;SHT31;54093;50.014;19.984;2023-03-17T09:03:26;12.96;34.81
67165;SHT31;54093;50.014;19.984;2023-03-17T09:12:48;13.02;32.06
67165;SHT31;54093;50.014;19.984;2023-03-17T09:22:14;12.72;28.34
67165;SHT31;54093;50.014;19.984;2023-03-17T09:31:35;13.33;27.54
67165;SHT31;54093;50.014;19.984;2023-03-17T09:50:53;13.09;27.42
67165;SHT31;54093;50.014;19.984;2023-03-17T10:00:26;12.01;28.92
67165;SHT31;54093;50.014;19.984;2023-03-17T10:10:02;13.07;27.76
67165;SHT31;54093;50.014;19.984;2023-03-17T10:29:18;13.98;25.58
67165;SHT31;54093;50.014;19.984;2023-03-17T10:38:51;13.71;25.74
67165;SHT31;54093;50.014;19.984;2023-03-17T10:48:16;13.89;25.56
67165;SHT31;54093;50.014;19.984;2023-03-17T10:57:39;14.21;24.06
67165;SHT31;54093;50.014;19.984;2023-03-17T11:07:15;14.23;25.23
67165;SHT31;54093;50.014;19.984;2023-03-17T11:16:39;14.40;25.32
67165;SHT31;54093;50.014;19.984;2023-03-17T11:26:17;13.60;25.41
67165;SHT31;54093;50.014;19.984;2023-03-17T11:35:49;14.06;25.95
67165;SHT31;54093;50.014;19.984;2023-03-17T11:45:15;13.91;23.23
67165;SHT31;54093;50.014;19.984;2023-03-17T12:13:39;14.49;26.58
67165;SHT31;54093;50.014;19.984;2023-03-17T12:23:09;14.57;27.05
67165;SHT31;54093;50.014;19.984;2023-03-17T12:32:40;14.23;27.42
67165;SHT31;54093;50.014;19.984;2023-03-17T13:01:38;14.04;29.30
67165;SHT31;54093;50.014;19.984;2023-03-17T13:11:44;13.97;29.09
67165;SHT31;54093;50.014;19.984;2023-03-17T13:21:10;14.11;30.00
67165;SHT31;54093;50.014;19.984;2023-03-17T13:49:36;14.16;28.30
67165;SHT31;54093;50.014;19.984;2023-03-17T14:08:35;13.77;28.87
67165;SHT31;54093;50.014;19.984;2023-03-17T14:18:05;13.33;29.54
67165;SHT31;54093;50.014;19.984;2023-03-17T14:27:29;13.16;32.33
67165;SHT31;54093;50.014;19.984;2023-03-17T14:36:53;13.24;29.75
67165;SHT31;54093;50.014;19.984;2023-03-17T14:46:32;12.92;29.39
67165;SHT31;54093;50.014;19.984;2023-03-17T14:55:54;12.76;28.45
67165;SHT31;54093;50.014;19.984;2023-03-17T15:14:38;12.48;28.98
67165;SHT31;54093;50.014;19.984;2023-03-17T15:33:41;11.68;29.18
67165;SHT31;54093;50.014;19.984;2023-03-17T15:43:02;11.46;29.49
67165;SHT31;54093;50.014;19.984;2023-03-17T15:52:25;11.14;30.10
67165;SHT31;54093;50.014;19.984;2023-03-17T16:01:46;10.91;30.44
67165;SHT31;54093;50.014;19.984;2023-03-17T16:11:21;10.73;31.18
67165;SHT31;54093;50.014;19.984;2023-03-17T16:20:51;10.50;32.55
67165;SHT31;54093;50.014;19.984;2023-03-17T16:30:21;10.29;34.59
67165;SHT31;54093;50.014;19.984;2023-03-17T16:39:43;10.04;36.10
67165;SHT31;54093;50.014;19.984;2023-03-17T16:49:05;9.84;36.91
67165;SHT31;54093;50.014;19.984;2023-03-17T16:58:30;9.54;38.15
67165;SHT31;54093;50.014;19.984;2023-03-17T17:07:53;9.33;38.60
67165;SHT31;54093;50.014;19.984;2023-03-17T17:17:14;9.09;40.10
67165;SHT31;54093;50.014;19.984;2023-03-17T17:26:35;8.82;40.83
67165;SHT31;54093;50.014;19.984;2023-03-17T17:35:56;8.65;41.59
67165;SHT31;54093;50.014;19.984;2023-03-17T17:45:18;8.46;42.12
67165;SHT31;54093;50.014;19.984;2023-03-17T17:54:39;8.33;43.36
67165;SHT31;54093;50.014;19.984;2023-03-17T18:04:01;8.13;44.47
67165;SHT31;54093;50.014;19.984;2023-03-17T18:13:26;7.93;43.75
67165;SHT31;54093;50.014;19.984;2023-03-17T18:22:49;7.82;45.56
67165;SHT31;54093;50.014;19.984;2023-03-17T18:32:11;7.71;45.61
67165;SHT31;54093;50.014;19.984;2023-03-17T18:41:33;7.62;45.64
67165;SHT31;54093;50.014;19.984;2023-03-17T18:50:54;7.47;46.77
67165;SHT31;54093;50.014;19.984;2023-03-17T19:00:16;7.28;48.07
67165;SHT31;54093;50.014;19.984;2023-03-17T19:09:39;7.20;49.16
67165;SHT31;54093;50.014;19.984;2023-03-17T19:19:03;7.06;49.58
67165;SHT31;54093;50.014;19.984;2023-03-17T19:28:24;6.83;48.55
67165;SHT31;54093;50.014;19.984;2023-03-17T19:37:46;6.58;51.04
67165;SHT31;54093;50.014;19.984;2023-03-17T19:47:06;6.40;51.17
67165;SHT31;54093;50.014;19.984;2023-03-17T19:56:28;6.10;52.10
67165;SHT31;54093;50.014;19.984;2023-03-17T20:05:51;5.92;51.36
67165;SHT31;54093;50.014;19.984;2023-03-17T20:15:12;5.41;52.68
67165;SHT31;54093;50.014;19.984;2023-03-17T20:24:33;5.23;54.32
67165;SHT31;54093;50.014;19.984;2023-03-17T20:33:55;5.17;54.27
67165;SHT31;54093;50.014;19.984;2023-03-17T20:43:16;5.17;54.70
67165;SHT31;54093;50.014;19.984;2023-03-17T20:52:38;5.04;54.87
67165;SHT31;54093;50.014;19.984;2023-03-17T21:02:00;4.97;53.84
67165;SHT31;54093;50.014;19.984;2023-03-17T21:11:22;5.07;53.46
67165;SHT31;54093;50.014;19.984;2023-03-17T21:20:42;4.96;55.40
67165;SHT31;54093;50.014;19.984;2023-03-17T21:30:09;4.80;55.27
67165;SHT31;54093;50.014;19.984;2023-03-17T21:39:31;4.63;55.18
67165;SHT31;54093;50.014;19.984;2023-03-17T21:48:52;4.58;55.96
67165;SHT31;54093;50.014;19.984;2023-03-17T21:58:13;4.29;56.23
67165;SHT31;54093;50.014;19.984;2023-03-17T22:07:34;4.14;57.56
67165;SHT31;54093;50.014;19.984;2023-03-17T22:16:56;3.86;57.55
67165;SHT31;54093;50.014;19.984;2023-03-17T22:26:19;3.74;57.83
67165;SHT31;54093;50.014;19.984;2023-03-17T22:35:41;3.71;58.65
67165;SHT31;54093;50.014;19.984;2023-03-17T22:45:02;3.59;59.93
67165;SHT31;54093;50.014;19.984;2023-03-17T22:54:24;3.22;59.92
67165;SHT31;54093;50.014;19.984;2023-03-17T23:03:45;3.14;60.29
67165;SHT31;54093;50.014;19.984;2023-03-17T23:13:07;2.94;60.73
67165;SHT31;54093;50.014;19.984;2023-03-17T23:22:28;3.04;60.30
67165;SHT31;54093;50.014;19.984;2023-03-17T23:31:49;2.97;59.59
67165;SHT31;54093;50.014;19.984;2023-03-17T23:41:11;2.98;60.43
67165;SHT31;54093;50.014;19.984;2023-03-17T23:50:32;3.07;61.25
67165;SHT31;54093;50.014;19.984;2023-03-17T23:59:53;3.02;59.73
